Time;durP1;ratioP1;P1;durP2;ratioP2;P2;SDS_P1;SDS_P2;PMS_P1;PMS_P2;Temp;Humidity;BMP_temperature;BMP_pressure;BME280_temperature;BME280_humidity;BME280_pressure;Samples;Min_cycle;Max_cycle;Signal;HPM_P1;HPM_P2
2021/12/16 00:02:23;;;;;;;;;;;6.90;99.90;;;;;;5065902;28;20044;-91
2021/12/16 00:07:38;;;;;;;1.20;0.80;;;7.00;99.90;;;;;;5062938;28;20547;-92
2021/12/16 00:10:20;;;;;;;0.60;0.60;;;7.00;99.90;;;;;;5050974;28;20326;-91
2021/12/16 00:29:54;;;;;;;0.60;0.60;;;7.10;99.90;;;;;;5067306;28;20131;-92
2021/12/16 00:34:57;;;;;;;0.60;0.60;;;7.10;99.90;;;;;;5012026;28;20118;-91
2021/12/16 00:37:24;;;;;;;2.20;1.33;;;7.10;99.90;;;;;;5050249;28;20086;-93
2021/12/16 00:39:49;;;;;;;0.80;0.80;;;7.20;99.90;;;;;;5049765;28;20056;-92
2021/12/16 00:45:22;;;;;;;0.60;0.60;;;7.20;99.90;;;;;;5054005;28;20087;-93
2021/12/16 00:47:56;;;;;;;0.70;0.70;;;7.20;99.90;;;;;;5049591;28;20139;-92
2021/12/16 00:55:56;;;;;;;1.70;1.60;;;7.20;99.90;;;;;;5074572;28;20044;-92
2021/12/16 00:58:31;;;;;;;1.02;1.00;;;7.20;99.90;;;;;;5064943;28;20068;-93
2021/12/16 01:01:10;;;;;;;0.70;0.70;;;7.20;99.90;;;;;;5048523;28;20052;-93
2021/12/16 01:03:45;;;;;;;1.85;1.48;;;7.20;99.90;;;;;;5050199;28;20044;-93
2021/12/16 01:33:37;;;;;;;0.70;0.70;;;7.30;99.90;;;;;;5009798;28;20053;-93
2021/12/16 01:49:59;;;;;;;0.60;0.60;;;7.70;99.90;;;;;;5065165;28;20062;-93
2021/12/16 01:53:02;;;;;;;0.80;0.80;;;7.70;99.90;;;;;;5048095;28;20055;-93
2021/12/16 01:55:35;;;;;;;1.17;1.15;;;7.70;99.90;;;;;;5067835;28;20469;-93
2021/12/16 01:58:12;;;;;;;0.90;0.90;;;7.80;99.90;;;;;;5048386;28;20036;-91
2021/12/16 02:00:54;;;;;;;0.73;0.73;;;7.70;99.90;;;;;;5056170;28;20053;-93
2021/12/16 02:03:27;;;;;;;0.70;0.70;;;7.80;99.90;;;;;;5050404;28;20040;-92
2021/12/16 02:06:01;;;;;;;0.77;0.75;;;7.80;99.90;;;;;;5048203;28;20454;-92
2021/12/16 02:08:32;;;;;;;0.80;0.80;;;7.80;99.90;;;;;;5044929;28;20033;-92
2021/12/16 02:11:21;;;;;;;0.68;0.68;;;7.90;99.90;;;;;;5048003;28;20090;-92
2021/12/16 02:33:09;;;;;;;0.60;0.60;;;7.90;99.90;;;;;;5055304;28;20058;-92
2021/12/16 02:35:40;;;;;;;1.08;1.02;;;7.90;99.90;;;;;;5060411;28;20059;-92
2021/12/16 02:38:06;;;;;;;0.52;0.52;;;7.90;99.90;;;;;;5045873;28;20120;-93
2021/12/16 02:40:34;;;;;;;0.60;0.60;;;7.80;99.90;;;;;;5047382;28;20044;-92
2021/12/16 02:43:20;;;;;;;0.60;0.60;;;7.90;99.90;;;;;;5049897;28;20040;-92
2021/12/16 02:48:33;;;;;;;;;;;7.90;99.90;;;;;;5087841;28;20112;-92
2021/12/16 02:51:17;;;;;;;0.60;0.60;;;7.80;99.90;;;;;;5051144;28;19920;-92
2021/12/16 02:53:46;;;;;;;0.63;0.63;;;7.90;99.90;;;;;;5060157;28;20078;-92
2021/12/16 02:56:13;;;;;;;0.75;0.75;;;7.80;99.90;;;;;;5058401;28;20196;-90
2021/12/16 02:58:44;;;;;;;0.70;0.70;;;7.80;99.90;;;;;;5047467;28;20040;-92
2021/12/16 03:01:14;;;;;;;0.60;0.60;;;7.80;99.90;;;;;;5047176;28;20059;-92
2021/12/16 03:03:42;;;;;;;0.60;0.60;;;7.80;99.90;;;;;;5047117;28;20029;-92
2021/12/16 03:06:09;;;;;;;0.60;0.60;;;7.70;99.90;;;;;;5055415;28;20064;-92
2021/12/16 03:08:36;;;;;;;0.70;0.70;;;7.60;99.90;;;;;;5047447;28;20211;-93
2021/12/16 03:11:19;;;;;;;0.70;0.70;;;7.50;99.90;;;;;;5047349;28;20048;-92
2021/12/16 03:14:16;;;;;;;0.60;0.60;;;7.60;99.90;;;;;;5047007;28;20040;-92
2021/12/16 03:16:52;;;;;;;0.60;0.60;;;7.50;99.90;;;;;;5056830;28;20052;-93
2021/12/16 03:19:21;;;;;;;0.75;0.75;;;7.40;99.90;;;;;;5057444;28;20080;-93
2021/12/16 03:21:52;;;;;;;0.60;0.60;;;7.40;99.90;;;;;;5054585;28;20090;-92
2021/12/16 03:24:36;;;;;;;0.70;0.70;;;7.30;99.90;;;;;;5043671;28;20045;-92
2021/12/16 03:27:33;;;;;;;0.60;0.60;;;7.30;99.90;;;;;;5079661;28;20048;-92
2021/12/16 03:30:24;;;;;;;1.55;0.80;;;7.20;99.90;;;;;;5065357;28;20068;-91
2021/12/16 03:35:34;;;;;;;0.80;0.80;;;7.10;99.90;;;;;;5067214;28;19932;-92
2021/12/16 03:38:06;;;;;;;0.75;0.75;;;7.00;99.90;;;;;;5050657;28;20064;-93
2021/12/16 03:40:33;;;;;;;0.90;0.90;;;7.00;99.90;;;;;;5050863;28;20051;-92
2021/12/16 03:43:07;;;;;;;0.70;0.70;;;7.00;99.90;;;;;;5050331;28;20043;-93
2021/12/16 03:48:43;;;;;;;1.55;1.45;;;6.90;99.90;;;;;;5074067;28;20408;-93
2021/12/16 03:51:38;;;;;;;0.90;0.90;;;6.80;99.90;;;;;;5067351;28;20036;-91
2021/12/16 03:54:16;;;;;;;1.25;1.15;;;6.70;99.90;;;;;;5058838;28;20063;-93
2021/12/16 03:56:42;;;;;;;0.70;0.70;;;6.70;99.90;;;;;;5071647;28;20074;-92
2021/12/16 03:59:09;;;;;;;0.60;0.60;;;6.60;99.90;;;;;;5057534;28;20051;-92
2021/12/16 04:01:35;;;;;;;1.08;0.90;;;6.60;99.90;;;;;;5050062;28;20047;-91
2021/12/16 04:04:02;;;;;;;0.70;0.70;;;6.60;99.90;;;;;;5050054;28;20052;-92
2021/12/16 04:06:31;;;;;;;0.60;0.60;;;6.60;99.90;;;;;;5067244;28;20101;-92
2021/12/16 04:08:57;;;;;;;0.70;0.70;;;6.50;99.90;;;;;;5047234;28;20064;-92
2021/12/16 04:11:32;;;;;;;0.90;0.90;;;6.50;99.90;;;;;;5051848;28;20041;-91
2021/12/16 04:14:00;;;;;;;0.70;0.70;;;6.40;99.90;;;;;;5058785;28;20048;-91
2021/12/16 04:16:45;;;;;;;0.60;0.60;;;6.40;99.90;;;;;;5049765;28;20094;-92
2021/12/16 04:19:14;;;;;;;1.02;0.93;;;6.50;99.90;;;;;;5052837;28;20103;-92
2021/12/16 04:21:52;;;;;;;0.85;0.85;;;6.40;99.90;;;;;;5055527;28;20481;-92
2021/12/16 04:24:18;;;;;;;1.13;1.05;;;6.40;99.90;;;;;;5039640;28;20056;-91
2021/12/16 04:26:45;;;;;;;0.70;0.70;;;6.40;99.90;;;;;;5065643;28;20052;-92
2021/12/16 04:29:13;;;;;;;1.10;1.00;;;6.40;99.90;;;;;;5046473;28;20036;-91
2021/12/16 04:31:39;;;;;;;1.20;1.10;;;6.40;99.90;;;;;;5052732;28;20048;-92
2021/12/16 04:34:07;;;;;;;0.80;0.80;;;6.40;99.90;;;;;;5046392;28;20051;-93
2021/12/16 04:36:34;;;;;;;3.47;1.10;;;6.40;99.90;;;;;;5058845;28;20064;-92
2021/12/16 04:39:02;;;;;;;1.58;1.30;;;6.40;99.90;;;;;;5056692;28;20191;-91
2021/12/16 04:41:37;;;;;;;0.70;0.70;;;6.40;99.90;;;;;;5066327;28;20044;-93
2021/12/16 04:44:07;;;;;;;0.63;0.63;;;6.40;99.90;;;;;;5050411;28;20082;-91
2021/12/16 04:46:32;;;;;;;0.98;0.98;;;6.40;99.90;;;;;;5051519;28;20074;-92
2021/12/16 04:48:59;;;;;;;0.70;0.70;;;6.40;99.90;;;;;;5058689;28;20044;-93
2021/12/16 04:51:27;;;;;;;0.60;0.60;;;6.40;99.90;;;;;;5066577;28;20044;-91
2021/12/16 04:53:53;;;;;;;2.80;1.55;;;6.40;99.90;;;;;;5055111;28;20064;-93
2021/12/16 04:56:20;;;;;;;0.63;0.63;;;6.40;99.90;;;;;;5055367;28;20044;-93
2021/12/16 04:58:49;;;;;;;2.00;1.40;;;6.30;99.90;;;;;;5049870;28;20041;-92
2021/12/16 05:01:15;;;;;;;0.70;0.70;;;6.30;99.90;;;;;;5045813;28;20041;-92
2021/12/16 05:03:41;;;;;;;0.77;0.77;;;6.30;99.90;;;;;;5041081;28;20044;-92
2021/12/16 05:06:08;;;;;;;0.75;0.75;;;6.20;99.90;;;;;;5055410;28;20048;-92
2021/12/16 05:08:34;;;;;;;1.55;1.05;;;6.20;99.90;;;;;;5051766;28;20051;-93
2021/12/16 05:11:03;;;;;;;0.70;0.70;;;6.20;99.90;;;;;;5049632;28;20484;-93
2021/12/16 05:13:30;;;;;;;0.70;0.70;;;6.20;99.90;;;;;;5058023;28;20036;-91
2021/12/16 05:16:00;;;;;;;0.70;0.70;;;6.20;99.90;;;;;;5045182;28;20829;-93
2021/12/16 05:18:31;;;;;;;3.03;1.02;;;6.20;99.90;;;;;;5063015;28;20041;-93
2021/12/16 05:20:58;;;;;;;0.73;0.73;;;6.20;99.90;;;;;;5043259;28;20603;-92
2021/12/16 05:28:43;;;;;;;1.02;0.93;;;6.20;99.90;;;;;;5056955;28;20051;-92
2021/12/16 05:31:09;;;;;;;1.08;0.98;;;6.20;99.90;;;;;;5025792;28;20037;-91
2021/12/16 05:33:35;;;;;;;2.83;1.80;;;6.30;99.90;;;;;;5048825;28;20052;-92
2021/12/16 05:36:00;;;;;;;0.60;0.60;;;6.30;99.90;;;;;;5045958;28;20048;-93
2021/12/16 05:38:29;;;;;;;1.95;1.42;;;6.30;99.90;;;;;;5057029;28;20071;-92
2021/12/16 05:40:56;;;;;;;0.80;0.80;;;6.30;99.90;;;;;;5056322;28;20028;-93
2021/12/16 05:43:24;;;;;;;1.05;0.95;;;6.30;99.90;;;;;;5051427;28;20025;-92
2021/12/16 05:45:52;;;;;;;1.35;1.25;;;6.30;99.90;;;;;;5046467;28;20053;-93
2021/12/16 05:48:23;;;;;;;0.70;0.70;;;6.30;99.90;;;;;;5060519;28;20044;-93
2021/12/16 05:50:55;;;;;;;0.80;0.80;;;6.40;99.90;;;;;;5065566;28;20032;-93
2021/12/16 05:53:22;;;;;;;0.60;0.60;;;6.40;99.90;;;;;;5067964;28;20175;-93
2021/12/16 05:55:48;;;;;;;0.95;0.93;;;6.30;99.90;;;;;;5055583;28;20037;-93
2021/12/16 05:58:19;;;;;;;0.80;0.80;;;6.30;99.90;;;;;;5055140;28;20032;-94
2021/12/16 06:00:48;;;;;;;0.95;0.85;;;6.40;99.90;;;;;;5060865;28;20058;-92
2021/12/16 06:03:14;;;;;;;0.80;0.80;;;6.30;99.90;;;;;;5074827;28;20116;-92
2021/12/16 06:05:40;;;;;;;0.70;0.70;;;6.30;99.90;;;;;;5076447;28;20043;-94
2021/12/16 06:08:06;;;;;;;0.70;0.70;;;6.20;99.90;;;;;;5056683;28;20036;-93
2021/12/16 06:13:16;;;;;;;0.85;0.85;;;6.20;99.90;;;;;;5060999;28;20064;-94
2021/12/16 06:22:19;;;;;;;0.70;0.70;;;6.20;99.90;;;;;;5054198;28;20103;-93
2021/12/16 06:27:07;;;;;;;1.02;0.93;;;6.00;99.90;;;;;;5004769;28;20092;-93
2021/12/16 06:29:35;;;;;;;0.70;0.70;;;6.00;99.90;;;;;;5024903;28;20067;-93
2021/12/16 06:32:00;;;;;;;0.70;0.70;;;6.00;99.90;;;;;;5047257;28;20178;-90
2021/12/16 06:34:26;;;;;;;0.73;0.73;;;5.90;99.90;;;;;;5042256;28;20182;-92
2021/12/16 06:36:53;;;;;;;0.70;0.70;;;5.90;99.90;;;;;;5080768;28;20039;-92
2021/12/16 06:39:19;;;;;;;0.60;0.60;;;5.90;99.90;;;;;;5047740;28;20059;-92
2021/12/16 06:41:45;;;;;;;0.70;0.70;;;5.90;99.90;;;;;;5047895;28;20147;-93
2021/12/16 06:44:38;;;;;;;1.27;1.17;;;5.90;99.90;;;;;;5046622;28;20048;-93
2021/12/16 06:47:07;;;;;;;0.70;0.70;;;5.80;99.90;;;;;;5071620;28;20048;-93
2021/12/16 06:49:35;;;;;;;0.75;0.75;;;5.80;99.90;;;;;;5052970;28;20041;-91
2021/12/16 06:52:04;;;;;;;0.60;0.60;;;5.80;99.90;;;;;;5046239;28;20064;-89
2021/12/16 06:54:39;;;;;;;0.70;0.70;;;5.70;99.90;;;;;;5043783;28;20048;-89
2021/12/16 06:59:56;;;;;;;0.60;0.60;;;5.70;99.90;;;;;;5058241;28;20132;-88
2021/12/16 07:05:08;;;;;;;0.70;0.70;;;5.60;99.90;;;;;;5061174;28;20048;-89
2021/12/16 07:07:34;;;;;;;0.70;0.70;;;5.60;99.90;;;;;;5064249;28;20817;-87
2021/12/16 07:09:59;;;;;;;0.70;0.70;;;5.50;99.90;;;;;;5046520;28;20063;-87
2021/12/16 07:12:35;;;;;;;0.70;0.70;;;5.50;99.90;;;;;;5055720;28;20056;-84
2021/12/16 07:15:04;;;;;;;0.70;0.70;;;5.50;99.90;;;;;;5042056;28;20055;-87
2021/12/16 07:17:33;;;;;;;0.80;0.80;;;5.50;99.90;;;;;;5051797;28;20048;-85
2021/12/16 07:19:58;;;;;;;0.70;0.70;;;5.70;99.90;;;;;;5044577;28;20036;-83
2021/12/16 07:22:24;;;;;;;0.73;0.73;;;5.40;99.90;;;;;;5048184;28;20068;-84
2021/12/16 07:24:50;;;;;;;1.13;1.02;;;5.40;99.90;;;;;;5060113;28;20517;-85
2021/12/16 07:27:18;;;;;;;0.60;0.60;;;5.40;99.90;;;;;;5050332;28;20032;-86
2021/12/16 07:29:43;;;;;;;0.80;0.80;;;5.40;99.90;;;;;;5045100;28;20037;-86
2021/12/16 07:32:09;;;;;;;0.60;0.60;;;5.40;99.90;;;;;;5065186;28;20132;-86
2021/12/16 07:34:35;;;;;;;0.70;0.70;;;5.40;99.90;;;;;;5047437;28;20064;-85
2021/12/16 07:37:04;;;;;;;0.70;0.70;;;5.30;99.90;;;;;;5066432;28;20036;-86
2021/12/16 07:39:37;;;;;;;0.90;0.90;;;5.30;99.90;;;;;;5048701;28;20068;-85
2021/12/16 07:42:04;;;;;;;1.10;1.00;;;5.40;99.90;;;;;;5055676;28;20041;-86
2021/12/16 07:44:32;;;;;;;0.93;0.90;;;5.30;99.90;;;;;;5050372;28;20048;-85
2021/12/16 07:47:03;;;;;;;0.88;0.88;;;5.30;99.90;;;;;;5053897;28;20089;-85
2021/12/16 07:49:32;;;;;;;0.60;0.60;;;5.20;99.90;;;;;;5046192;28;20041;-87
2021/12/16 07:52:00;;;;;;;0.60;0.60;;;5.40;99.90;;;;;;5045830;28;20029;-85
2021/12/16 07:54:26;;;;;;;0.77;0.77;;;5.30;99.90;;;;;;5079570;28;20056;-86
2021/12/16 07:56:55;;;;;;;0.70;0.70;;;5.40;99.90;;;;;;5063012;28;20127;-85
2021/12/16 07:59:22;;;;;;;0.80;0.80;;;5.40;99.90;;;;;;5046624;28;20094;-86
2021/12/16 08:01:48;;;;;;;0.65;0.65;;;5.40;99.90;;;;;;5047507;28;20044;-85
2021/12/16 08:04:20;;;;;;;0.60;0.60;;;5.40;99.90;;;;;;5060909;28;20539;-85
2021/12/16 08:06:49;;;;;;;0.60;0.60;;;5.40;99.90;;;;;;5056516;28;20036;-86
2021/12/16 08:09:15;;;;;;;0.68;0.68;;;5.70;99.90;;;;;;5065215;28;20202;-87
2021/12/16 08:11:43;;;;;;;0.70;0.70;;;5.60;99.90;;;;;;5048617;28;20500;-86
2021/12/16 08:14:09;;;;;;;0.68;0.68;;;5.60;99.90;;;;;;5045312;28;20203;-85
2021/12/16 08:16:39;;;;;;;0.93;0.93;;;5.70;99.90;;;;;;5071836;28;20044;-85
2021/12/16 08:19:06;;;;;;;0.60;0.60;;;5.70;99.90;;;;;;5063471;28;20063;-84
2021/12/16 08:21:32;;;;;;;0.60;0.60;;;5.70;99.90;;;;;;5063007;28;20055;-85
2021/12/16 08:24:09;;;;;;;0.60;0.60;;;5.80;99.90;;;;;;5062077;28;20100;-84
2021/12/16 08:26:39;;;;;;;0.60;0.60;;;5.80;99.90;;;;;;5043721;28;20056;-85
2021/12/16 08:29:06;;;;;;;0.70;0.70;;;5.90;99.90;;;;;;5063271;28;20056;-85
2021/12/16 08:31:33;;;;;;;0.80;0.80;;;6.00;99.90;;;;;;5044022;28;20511;-85
2021/12/16 08:33:59;;;;;;;0.60;0.60;;;6.00;99.90;;;;;;5063644;28;20107;-86
2021/12/16 08:36:26;;;;;;;1.48;1.35;;;6.00;99.90;;;;;;5063789;28;20068;-85
2021/12/16 08:38:51;;;;;;;0.63;0.63;;;6.10;99.90;;;;;;5047335;28;20480;-86
2021/12/16 08:41:24;;;;;;;0.65;0.65;;;6.10;99.90;;;;;;5064547;28;20067;-85
2021/12/16 08:43:49;;;;;;;0.52;0.52;;;6.10;99.90;;;;;;5063452;28;20119;-87
2021/12/16 08:46:18;;;;;;;0.70;0.70;;;6.20;99.90;;;;;;5044627;28;20065;-88
2021/12/16 08:48:45;;;;;;;0.70;0.70;;;6.20;99.90;;;;;;5048143;28;20041;-87
2021/12/16 08:51:12;;;;;;;1.00;0.98;;;6.20;99.90;;;;;;5063707;28;20094;-88
2021/12/16 08:53:38;;;;;;;0.70;0.70;;;6.30;99.90;;;;;;5047289;28;20108;-86
2021/12/16 08:56:06;;;;;;;0.68;0.68;;;6.30;99.90;;;;;;5060271;28;20032;-86
2021/12/16 08:58:32;;;;;;;0.95;0.95;;;6.30;99.90;;;;;;5044659;28;20041;-88
2021/12/16 09:01:05;;;;;;;0.60;0.60;;;6.30;99.90;;;;;;5047092;28;20108;-86
2021/12/16 09:03:35;;;;;;;0.60;0.60;;;6.30;99.90;;;;;;5045325;28;20512;-87
2021/12/16 09:06:02;;;;;;;0.70;0.70;;;6.40;99.90;;;;;;5051736;28;20487;-87
2021/12/16 09:08:28;;;;;;;1.40;1.30;;;6.50;99.90;;;;;;5046821;28;20071;-87
2021/12/16 09:10:54;;;;;;;0.70;0.70;;;6.50;99.90;;;;;;5042042;28;20045;-86
2021/12/16 09:13:20;;;;;;;0.60;0.60;;;6.50;99.90;;;;;;5046157;28;20067;-85
2021/12/16 09:15:54;;;;;;;0.90;0.90;;;6.60;99.90;;;;;;5062378;28;20489;-86
2021/12/16 09:18:24;;;;;;;;;;;6.60;99.90;;;;;;5047630;28;20071;-87
2021/12/16 09:20:51;;;;;;;0.60;0.60;;;6.60;99.90;;;;;;5062743;28;19928;-87
2021/12/16 09:23:17;;;;;;;0.70;0.70;;;6.60;99.90;;;;;;5062644;28;20064;-86
2021/12/16 09:25:45;;;;;;;1.33;1.23;;;6.60;99.90;;;;;;5042022;28;20051;-86
2021/12/16 09:28:11;;;;;;;1.25;1.15;;;6.70;99.90;;;;;;5062879;28;20047;-87
2021/12/16 09:30:38;;;;;;;1.25;1.15;;;6.70;99.90;;;;;;5042412;28;20036;-86
2021/12/16 09:33:06;;;;;;;0.80;0.80;;;6.60;99.90;;;;;;5059987;28;20311;-87
2021/12/16 09:35:34;;;;;;;0.95;0.95;;;6.70;99.90;;;;;;5061959;28;20044;-87
2021/12/16 09:38:03;;;;;;;0.80;0.80;;;6.70;99.90;;;;;;5040149;28;20100;-89
2021/12/16 09:40:30;;;;;;;0.60;0.60;;;6.70;99.90;;;;;;5045785;28;20066;-86
2021/12/16 09:42:57;;;;;;;0.80;0.80;;;6.70;99.90;;;;;;5053551;28;20045;-87
2021/12/16 09:45:23;;;;;;;0.57;0.57;;;6.70;99.90;;;;;;5040908;28;20052;-87
2021/12/16 09:47:50;;;;;;;0.80;0.80;;;6.70;99.90;;;;;;5057365;28;20040;-88
2021/12/16 09:50:21;;;;;;;3.53;1.92;;;6.80;99.90;;;;;;5045704;28;20052;-86
2021/12/16 09:52:46;;;;;;;0.80;0.80;;;6.80;99.90;;;;;;5039636;28;20059;-87
2021/12/16 09:55:12;;;;;;;0.90;0.88;;;6.80;99.90;;;;;;5050005;28;20120;-87
2021/12/16 09:57:38;;;;;;;0.85;0.85;;;6.80;99.90;;;;;;5042649;28;20063;-87
2021/12/16 10:00:12;;;;;;;0.80;0.80;;;6.80;99.90;;;;;;5044983;28;20059;-86
2021/12/16 10:02:38;;;;;;;0.70;0.70;;;6.80;99.90;;;;;;5053953;28;20044;-88
2021/12/16 10:05:08;;;;;;;0.77;0.77;;;6.70;99.90;;;;;;5059239;28;20049;-86
2021/12/16 10:07:35;;;;;;;0.75;0.75;;;6.80;99.90;;;;;;5060353;28;20036;-85
2021/12/16 10:10:09;;;;;;;0.60;0.60;;;6.80;99.90;;;;;;5061078;28;20140;-85
2021/12/16 10:12:39;;;;;;;0.60;0.60;;;6.90;99.90;;;;;;5044565;28;20033;-86
2021/12/16 10:17:23;;;;;;;0.80;0.80;;;6.90;99.90;;;;;;5040263;28;20068;-86
2021/12/16 10:17:54;;;;;;;0.68;0.68;;;6.90;99.90;;;;;;5059902;28;20112;-85
2021/12/16 10:20:23;;;;;;;0.57;0.57;;;7.00;99.90;;;;;;5061479;28;20044;-85
2021/12/16 10:22:51;;;;;;;0.80;0.80;;;7.00;99.90;;;;;;5058211;28;20116;-87
2021/12/16 10:25:31;;;;;;;0.60;0.60;;;7.10;99.90;;;;;;5039964;28;20041;-86
2021/12/16 10:28:30;;;;;;;0.63;0.63;;;7.10;99.90;;;;;;5056569;28;20062;-86
2021/12/16 10:31:25;;;;;;;1.52;1.42;;;7.20;99.90;;;;;;5058370;28;20052;-85
2021/12/16 10:34:01;;;;;;;0.60;0.60;;;7.30;99.90;;;;;;5058574;28;20094;-86
2021/12/16 10:36:33;;;;;;;0.75;0.75;;;7.30;99.90;;;;;;5032478;28;20559;-87
2021/12/16 10:39:05;;;;;;;0.60;0.60;;;7.30;99.90;;;;;;5056760;28;20036;-86
2021/12/16 10:41:45;;;;;;;2.05;0.95;;;7.30;99.90;;;;;;5042479;28;20032;-87
2021/12/16 10:44:23;;;;;;;0.60;0.60;;;7.30;99.90;;;;;;5042161;28;20120;-86
2021/12/16 10:46:59;;;;;;;0.70;0.70;;;7.40;99.90;;;;;;5043795;28;20037;-86
2021/12/16 10:49:27;;;;;;;1.00;1.00;;;7.40;99.90;;;;;;5074503;28;20107;-86
2021/12/16 10:51:57;;;;;;;0.60;0.60;;;7.40;99.90;;;;;;5060990;28;20068;-86
2021/12/16 10:54:24;;;;;;;0.60;0.60;;;7.40;99.90;;;;;;5044253;28;20064;-85
2021/12/16 10:57:21;;;;;;;0.70;0.70;;;7.40;99.90;;;;;;5044568;28;20059;-87
2021/12/16 10:59:53;;;;;;;0.70;0.70;;;7.50;99.90;;;;;;5026622;28;20056;-85
2021/12/16 11:02:29;;;;;;;0.73;0.73;;;7.50;99.90;;;;;;5040542;28;20397;-86
2021/12/16 11:05:05;;;;;;;0.60;0.60;;;7.50;99.90;;;;;;5065549;28;20162;-88
2021/12/16 11:07:38;;;;;;;2.40;0.95;;;7.60;99.90;;;;;;5065725;28;20045;-87
2021/12/16 11:10:18;;;;;;;1.35;1.00;;;7.50;99.90;;;;;;5049196;28;20058;-88
2021/12/16 11:12:53;;;;;;;0.75;0.75;;;7.50;99.90;;;;;;5043659;28;20063;-87
2021/12/16 11:15:38;;;;;;;0.77;0.77;;;7.60;99.90;;;;;;5051159;28;20055;-88
2021/12/16 11:18:07;;;;;;;0.70;0.70;;;7.60;99.90;;;;;;5042803;28;20126;-88
2021/12/16 11:20:43;;;;;;;0.60;0.60;;;7.60;99.90;;;;;;5061945;28;20044;-87
2021/12/16 11:23:17;;;;;;;0.60;0.60;;;7.60;99.90;;;;;;5062185;28;20040;-88
2021/12/16 11:25:58;;;;;;;0.70;0.70;;;7.70;99.90;;;;;;5036744;28;20037;-88
2021/12/16 11:28:45;;;;;;;0.70;0.70;;;7.70;99.90;;;;;;5042814;28;20032;-87
2021/12/16 11:31:15;;;;;;;0.73;0.73;;;7.70;99.90;;;;;;5042339;28;20102;-86
2021/12/16 11:33:48;;;;;;;0.60;0.60;;;7.70;99.90;;;;;;5049449;28;20037;-87
2021/12/16 11:36:31;;;;;;;0.67;0.67;;;7.70;99.90;;;;;;5050561;28;20048;-86
2021/12/16 11:39:10;;;;;;;1.20;1.10;;;7.70;99.90;;;;;;5058988;28;20522;-85
2021/12/16 11:42:02;;;;;;;0.65;0.65;;;7.70;99.90;;;;;;5074837;28;20048;-86
2021/12/16 11:44:33;;;;;;;0.80;0.80;;;7.80;99.90;;;;;;5044405;28;20093;-86
2021/12/16 11:47:06;;;;;;;0.65;0.65;;;7.80;99.90;;;;;;5042878;28;20056;-86
2021/12/16 11:49:41;;;;;;;0.60;0.60;;;7.80;99.90;;;;;;5036533;28;20036;-86
2021/12/16 11:52:13;;;;;;;0.88;0.88;;;7.80;99.90;;;;;;5044320;28;20228;-86
2021/12/16 11:54:46;;;;;;;0.60;0.60;;;7.90;99.90;;;;;;5066237;28;20040;-86
2021/12/16 11:57:14;;;;;;;0.63;0.63;;;7.90;99.90;;;;;;5047582;28;20058;-86
2021/12/16 11:59:48;;;;;;;0.60;0.60;;;7.90;99.90;;;;;;5047139;28;20067;-86
2021/12/16 12:02:31;;;;;;;0.80;0.80;;;8.00;99.90;;;;;;5041179;28;20052;-86
2021/12/16 12:05:19;;;;;;;0.80;0.80;;;7.90;99.90;;;;;;5045540;28;20566;-87
2021/12/16 12:08:10;;;;;;;0.65;0.65;;;7.90;99.90;;;;;;5060262;28;20037;-86
2021/12/16 12:10:38;;;;;;;0.68;0.68;;;8.00;99.90;;;;;;5053191;28;20064;-87
2021/12/16 12:13:15;;;;;;;0.60;0.60;;;8.00;99.90;;;;;;5048129;28;20056;-88
2021/12/16 12:16:12;;;;;;;1.13;1.13;;;8.00;99.90;;;;;;5044356;28;20059;-87
2021/12/16 12:18:42;;;;;;;0.60;0.60;;;8.00;99.90;;;;;;5047955;28;20153;-88
2021/12/16 12:21:50;;;;;;;1.58;0.85;;;8.00;99.90;;;;;;5049216;28;20093;-86
2021/12/16 12:24:19;;;;;;;0.98;0.98;;;8.00;99.90;;;;;;5048455;28;20052;-86
2021/12/16 12:27:02;;;;;;;2.75;0.93;;;8.00;99.90;;;;;;5063082;28;20055;-85
2021/12/16 12:29:33;;;;;;;0.80;0.80;;;8.00;99.90;;;;;;5063094;28;20092;-84
2021/12/16 12:32:04;;;;;;;1.42;1.33;;;8.10;99.90;;;;;;5060375;28;20063;-84
2021/12/16 12:34:32;;;;;;;0.68;0.68;;;8.10;99.90;;;;;;5061055;28;20123;-86
2021/12/16 12:37:03;;;;;;;0.60;0.60;;;8.10;99.90;;;;;;5047598;28;20048;-84
2021/12/16 12:39:36;;;;;;;1.48;1.33;;;8.10;99.90;;;;;;5063620;28;20072;-84
2021/12/16 12:42:03;;;;;;;1.27;1.05;;;8.10;99.90;;;;;;5043635;28;20112;-84
2021/12/16 12:44:29;;;;;;;0.70;0.70;;;8.10;99.90;;;;;;5045400;28;20068;-84
2021/12/16 12:46:55;;;;;;;1.10;0.82;;;8.10;99.90;;;;;;5026597;28;20048;-84
2021/12/16 12:49:29;;;;;;;0.57;0.57;;;8.20;99.90;;;;;;5061156;28;20220;-84
2021/12/16 12:52:05;;;;;;;0.80;0.80;;;8.20;99.90;;;;;;5059175;28;20040;-84
2021/12/16 12:54:32;;;;;;;2.05;1.15;;;8.20;99.90;;;;;;5049348;28;20048;-84
2021/12/16 12:57:00;;;;;;;0.75;0.70;;;8.20;99.90;;;;;;5060856;28;20040;-84
2021/12/16 12:59:38;;;;;;;0.80;0.80;;;8.20;99.90;;;;;;5047911;28;20044;-84
2021/12/16 13:02:20;;;;;;;1.33;1.25;;;8.20;99.90;;;;;;5072903;28;20109;-84
2021/12/16 13:05:08;;;;;;;0.93;0.93;;;8.30;99.90;;;;;;5063544;28;20044;-85
2021/12/16 13:07:43;;;;;;;0.98;0.98;;;8.30;99.90;;;;;;5048638;28;20392;-84
2021/12/16 13:10:23;;;;;;;0.70;0.70;;;8.30;99.90;;;;;;5059050;28;20060;-83
2021/12/16 13:13:01;;;;;;;1.65;1.20;;;8.30;99.90;;;;;;5063582;28;20096;-84
2021/12/16 13:15:49;;;;;;;2.60;0.98;;;8.40;99.90;;;;;;5067709;28;20127;-85
2021/12/16 13:27:07;;;;;;;0.80;0.80;;;8.30;99.90;;;;;;5055435;28;20076;-84
2021/12/16 13:29:39;;;;;;;1.10;1.00;;;8.30;99.90;;;;;;5065338;28;20040;-84
2021/12/16 13:32:30;;;;;;;1.45;1.35;;;8.30;99.90;;;;;;5060214;28;20055;-84
2021/12/16 13:35:11;;;;;;;4.35;0.85;;;8.30;99.90;;;;;;5068999;28;20037;-84
2021/12/16 13:37:44;;;;;;;1.33;0.93;;;8.30;99.90;;;;;;5039983;28;20072;-85
2021/12/16 13:40:26;;;;;;;0.67;0.67;;;8.30;99.90;;;;;;5060826;28;20052;-86
2021/12/16 13:42:58;;;;;;;1.00;0.90;;;8.30;99.90;;;;;;5044329;28;20037;-85
2021/12/16 13:45:36;;;;;;;1.52;1.42;;;8.30;99.90;;;;;;5062899;28;20123;-84
2021/12/16 14:00:18;;;;;;;1.13;1.00;;;8.30;99.90;;;;;;5063208;28;20056;-85
2021/12/16 14:05:32;;;;;;;0.75;0.75;;;8.30;99.90;;;;;;5060475;28;20040;-84
2021/12/16 14:08:07;;;;;;;0.80;0.80;;;8.30;99.90;;;;;;5058823;28;20044;-85
2021/12/16 14:10:45;;;;;;;0.60;0.60;;;8.30;99.90;;;;;;5059138;28;20628;-85
2021/12/16 14:25:08;;;;;;;1.05;1.05;;;8.20;99.90;;;;;;5058245;28;20077;-86
2021/12/16 14:42:03;;;;;;;0.60;0.60;;;8.30;99.90;;;;;;5058776;28;20041;-87
2021/12/16 14:49:51;;;;;;;1.25;1.17;;;8.20;99.90;;;;;;5059777;28;20091;-87
2021/12/16 14:52:29;;;;;;;1.60;1.50;;;8.20;99.90;;;;;;5039433;28;20033;-87
2021/12/16 14:54:56;;;;;;;0.60;0.60;;;8.10;99.90;;;;;;5044165;28;20049;-87
2021/12/16 14:57:30;;;;;;;1.30;1.20;;;8.20;99.90;;;;;;5061220;28;20040;-87
2021/12/16 14:59:56;;;;;;;1.35;1.25;;;8.10;99.90;;;;;;5038178;28;20059;-86
2021/12/16 15:02:29;;;;;;;0.80;0.80;;;8.10;99.90;;;;;;5058679;28;20036;-86
2021/12/16 15:04:55;;;;;;;3.53;1.15;;;8.10;99.90;;;;;;5059567;28;20045;-86
2021/12/16 15:07:26;;;;;;;0.60;0.60;;;8.10;99.90;;;;;;5042725;28;20469;-85
2021/12/16 15:09:55;;;;;;;0.60;0.60;;;8.00;99.90;;;;;;5061340;28;20057;-86
2021/12/16 15:12:47;;;;;;;1.17;1.05;;;8.00;99.90;;;;;;5075947;28;20045;-86
2021/12/16 15:39:50;;;;;;;1.02;1.00;;;7.90;99.90;;;;;;5077521;28;20040;-88
2021/12/16 15:45:08;;;;;;;0.60;0.60;;;7.90;99.90;;;;;;5062323;28;20139;-87
2021/12/16 15:47:44;;;;;;;0.85;0.85;;;8.00;99.90;;;;;;5041365;28;20171;-87
2021/12/16 15:50:12;;;;;;;0.60;0.60;;;8.00;99.90;;;;;;5041944;28;20056;-86
2021/12/16 15:52:44;;;;;;;0.60;0.60;;;7.90;99.90;;;;;;5063082;28;20055;-86
2021/12/16 15:55:19;;;;;;;0.70;0.70;;;8.00;99.90;;;;;;5052701;28;20052;-87
2021/12/16 15:57:45;;;;;;;0.70;0.70;;;7.90;99.90;;;;;;5047775;28;20090;-89
2021/12/16 16:00:15;;;;;;;0.60;0.60;;;8.00;99.90;;;;;;5048138;28;20551;-89
2021/12/16 16:02:41;;;;;;;0.60;0.60;;;8.00;99.90;;;;;;5045561;28;20158;-89
2021/12/16 16:05:10;;;;;;;0.70;0.70;;;8.00;99.90;;;;;;5046611;28;20119;-88
2021/12/16 16:07:38;;;;;;;0.50;0.50;;;8.00;99.90;;;;;;5064902;28;20071;-89
2021/12/16 16:10:07;;;;;;;0.90;0.90;;;8.00;99.90;;;;;;5048529;28;20060;-89
2021/12/16 16:12:34;;;;;;;0.60;0.60;;;8.00;99.90;;;;;;5046565;28;20044;-88
2021/12/16 16:15:18;;;;;;;0.60;0.60;;;8.00;99.90;;;;;;5048700;28;20052;-89
2021/12/16 16:18:11;;;;;;;0.65;0.65;;;8.00;99.90;;;;;;5060341;28;20032;-86
2021/12/16 16:20:37;;;;;;;0.95;0.95;;;8.00;99.90;;;;;;5051468;28;20132;-86
2021/12/16 16:23:06;;;;;;;0.75;0.75;;;8.00;99.90;;;;;;5049008;28;20104;-86
2021/12/16 16:25:32;;;;;;;0.60;0.60;;;8.00;99.90;;;;;;5062616;28;20055;-86
2021/12/16 16:28:01;;;;;;;0.90;0.90;;;8.00;99.90;;;;;;5052128;28;20658;-86
2021/12/16 16:30:27;;;;;;;0.60;0.60;;;8.00;99.90;;;;;;5045969;28;20128;-86
2021/12/16 16:33:03;;;;;;;0.70;0.70;;;8.00;99.90;;;;;;5063376;28;20384;-85
2021/12/16 16:35:29;;;;;;;0.70;0.70;;;8.00;99.90;;;;;;5035555;28;20052;-86
2021/12/16 16:38:17;;;;;;;1.05;1.05;;;8.00;99.90;;;;;;5045140;28;20040;-85
2021/12/16 16:40:46;;;;;;;0.63;0.63;;;8.00;99.90;;;;;;5038953;28;20036;-85
2021/12/16 16:43:26;;;;;;;0.68;0.68;;;8.00;99.90;;;;;;5063567;28;20128;-85
2021/12/16 16:45:55;;;;;;;0.60;0.60;;;8.00;99.90;;;;;;5041220;28;20053;-85
2021/12/16 16:48:47;;;;;;;0.80;0.80;;;8.00;99.90;;;;;;5062485;28;20040;-85